sensor_id;sensor_type;location;lat;lon;timestamp;pressure;altitude;pressure_sealevel;temperature;humidity
59767;BME280;46248;58.364;25.582;2023-09-18T00:02:01;101492.84;;;5.38;100.00
59767;BME280;46248;58.364;25.582;2023-09-18T00:05:24;101491.16;;;5.37;100.00
59767;BME280;46248;58.364;25.582;2023-09-18T00:08:46;101499.84;;;5.36;100.00
59767;BME280;46248;58.364;25.582;2023-09-18T00:12:08;101490.44;;;5.25;100.00
59767;BME280;46248;58.364;25.582;2023-09-18T00:15:30;101490.47;;;5.22;100.00
59767;BME280;46248;58.364;25.582;2023-09-18T00:18:53;101506.81;;;5.29;100.00
59767;BME280;46248;58.364;25.582;2023-09-18T00:22:16;101500.91;;;5.21;100.00
59767;BME280;46248;58.364;25.582;2023-09-18T00:25:38;101501.72;;;5.24;100.00
59767;BME280;46248;58.364;25.582;2023-09-18T00:29:01;101510.41;;;5.22;100.00
59767;BME280;46248;58.364;25.582;2023-09-18T00:32:23;101506.94;;;5.20;100.00
59767;BME280;46248;58.364;25.582;2023-09-18T00:35:47;101503.56;;;5.13;100.00
59767;BME280;46248;58.364;25.582;2023-09-18T00:39:08;101501.06;;;5.09;100.00
59767;BME280;46248;58.364;25.582;2023-09-18T00:42:31;101499.34;;;5.04;100.00
59767;BME280;46248;58.364;25.582;2023-09-18T00:45:53;101500.25;;;5.02;100.00
59767;BME280;46248;58.364;25.582;2023-09-18T00:49:16;101507.22;;;4.98;100.00
59767;BME280;46248;58.364;25.582;2023-09-18T00:52:41;101472.03;;;4.74;100.00
59767;BME280;46248;58.364;25.582;2023-09-18T00:56:03;101509.91;;;4.92;100.00
59767;BME280;46248;58.364;25.582;2023-09-18T00:59:26;101502.16;;;4.89;100.00
59767;BME280;46248;58.364;25.582;2023-09-18T01:02:48;101501.31;;;4.87;100.00
59767;BME280;46248;58.364;25.582;2023-09-18T01:06:10;101505.66;;;4.83;100.00
59767;BME280;46248;58.364;25.582;2023-09-18T01:09:33;101507.44;;;4.80;100.00
59767;BME280;46248;58.364;25.582;2023-09-18T01:13:03;101511.78;;;4.79;100.00
59767;BME280;46248;58.364;25.582;2023-09-18T01:16:30;101513.53;;;4.79;100.00
59767;BME280;46248;58.364;25.582;2023-09-18T01:19:54;101510.06;;;4.78;100.00
59767;BME280;46248;58.364;25.582;2023-09-18T01:23:17;101514.38;;;4.78;100.00
59767;BME280;46248;58.364;25.582;2023-09-18T01:26:39;101501.53;;;4.67;100.00
59767;BME280;46248;58.364;25.582;2023-09-18T01:30:01;101516.19;;;4.71;100.00
59767;BME280;46248;58.364;25.582;2023-09-18T01:33:23;101504.09;;;4.69;100.00
59767;BME280;46248;58.364;25.582;2023-09-18T01:36:46;101506.72;;;4.66;100.00
59767;BME280;46248;58.364;25.582;2023-09-18T01:40:10;101503.31;;;4.64;100.00
59767;BME280;46248;58.364;25.582;2023-09-18T01:43:32;101497.31;;;4.60;100.00
59767;BME280;46248;58.364;25.582;2023-09-18T01:46:58;101481.00;;;4.47;100.00
59767;BME280;46248;58.364;25.582;2023-09-18T01:50:20;101499.06;;;4.56;100.00
59767;BME280;46248;58.364;25.582;2023-09-18T01:53:42;101500.00;;;4.49;100.00
59767;BME280;46248;58.364;25.582;2023-09-18T01:57:06;101487.91;;;4.48;100.00
59767;BME280;46248;58.364;25.582;2023-09-18T02:00:28;101495.66;;;4.51;100.00
59767;BME280;46248;58.364;25.582;2023-09-18T02:03:50;101499.13;;;4.52;100.00
59767;BME280;46248;58.364;25.582;2023-09-18T02:07:32;101493.88;;;4.58;100.00
59767;BME280;46248;58.364;25.582;2023-09-18T02:10:54;101486.88;;;4.65;100.00
59767;BME280;46248;58.364;25.582;2023-09-18T02:14:18;101493.72;;;4.69;100.00
59767;BME280;46248;58.364;25.582;2023-09-18T02:17:40;101500.66;;;4.68;100.00
59767;BME280;46248;58.364;25.582;2023-09-18T02:21:02;101478.31;;;4.58;100.00
59767;BME280;46248;58.364;25.582;2023-09-18T02:24:24;101492.91;;;4.67;100.00
59767;BME280;46248;58.364;25.582;2023-09-18T02:27:46;101496.34;;;4.66;100.00
59767;BME280;46248;58.364;25.582;2023-09-18T02:31:11;101486.91;;;4.63;100.00
59767;BME280;46248;58.364;25.582;2023-09-18T02:34:33;101490.41;;;4.57;100.00
59767;BME280;46248;58.364;25.582;2023-09-18T02:37:55;101501.53;;;4.66;100.00
59767;BME280;46248;58.364;25.582;2023-09-18T02:41:17;101501.53;;;4.66;100.00
59767;BME280;46248;58.364;25.582;2023-09-18T02:44:39;101502.44;;;4.65;100.00
59767;BME280;46248;58.364;25.582;2023-09-18T02:48:02;101499.84;;;4.65;100.00
59767;BME280;46248;58.364;25.582;2023-09-18T02:51:24;101500.72;;;4.62;100.00
59767;BME280;46248;58.364;25.582;2023-09-18T02:54:46;101499.91;;;4.60;100.00
59767;BME280;46248;58.364;25.582;2023-09-18T02:58:07;101498.19;;;4.56;100.00
59767;BME280;46248;58.364;25.582;2023-09-18T03:01:30;101482.72;;;4.48;100.00
59767;BME280;46248;58.364;25.582;2023-09-18T03:04:54;101506.00;;;4.53;100.00
59767;BME280;46248;58.364;25.582;2023-09-18T03:08:15;101504.31;;;4.50;100.00
59767;BME280;46248;58.364;25.582;2023-09-18T03:11:37;101491.44;;;4.43;100.00
59767;BME280;46248;58.364;25.582;2023-09-18T03:14:59;101511.25;;;4.47;100.00
59767;BME280;46248;58.364;25.582;2023-09-18T03:18:21;101512.16;;;4.44;100.00
59767;BME280;46248;58.364;25.582;2023-09-18T03:21:44;101513.06;;;4.40;100.00
59767;BME280;46248;58.364;25.582;2023-09-18T03:25:06;101518.22;;;4.43;100.00
59767;BME280;46248;58.364;25.582;2023-09-18T03:28:28;101509.59;;;4.41;100.00
59767;BME280;46248;58.364;25.582;2023-09-18T03:31:50;101515.66;;;4.39;100.00
59767;BME280;46248;58.364;25.582;2023-09-18T03:35:12;101512.25;;;4.36;100.00
59767;BME280;46248;58.364;25.582;2023-09-18T03:38:40;101519.19;;;4.33;100.00
59767;BME280;46248;58.364;25.582;2023-09-18T03:42:02;101520.06;;;4.33;100.00
59767;BME280;46248;58.364;25.582;2023-09-18T03:45:24;101524.38;;;4.31;100.00
59767;BME280;46248;58.364;25.582;2023-09-18T03:48:46;101531.25;;;4.35;100.00
59767;BME280;46248;58.364;25.582;2023-09-18T03:52:08;101534.72;;;4.36;100.00
59767;BME280;46248;58.364;25.582;2023-09-18T03:55:31;101532.16;;;4.33;100.00
59767;BME280;46248;58.364;25.582;2023-09-18T03:58:53;101523.56;;;4.23;100.00
59767;BME280;46248;58.364;25.582;2023-09-18T04:02:15;101542.53;;;4.33;100.00
59767;BME280;46248;58.364;25.582;2023-09-18T04:05:37;101541.69;;;4.28;100.00
59767;BME280;46248;58.364;25.582;2023-09-18T04:08:59;101551.19;;;4.30;100.00
59767;BME280;46248;58.364;25.582;2023-09-18T04:12:22;101546.00;;;4.30;100.00
59767;BME280;46248;58.364;25.582;2023-09-18T04:15:44;101545.13;;;4.31;100.00
59767;BME280;46248;58.364;25.582;2023-09-18T04:19:06;101529.56;;;4.33;100.00
59767;BME280;46248;58.364;25.582;2023-09-18T04:22:30;101527.75;;;4.41;100.00
59767;BME280;46248;58.364;25.582;2023-09-18T04:25:53;101529.41;;;4.47;100.00
59767;BME280;46248;58.364;25.582;2023-09-18T04:29:16;101539.66;;;4.61;100.00
59767;BME280;46248;58.364;25.582;2023-09-18T04:32:39;101538.75;;;4.65;100.00
59767;BME280;46248;58.364;25.582;2023-09-18T04:36:02;101539.53;;;4.71;100.00
59767;BME280;46248;58.364;25.582;2023-09-18T04:39:24;101545.53;;;4.75;100.00
59767;BME280;46248;58.364;25.582;2023-09-18T04:42:46;101530.88;;;4.75;100.00
59767;BME280;46248;58.364;25.582;2023-09-18T04:46:09;101530.75;;;4.85;100.00
59767;BME280;46248;58.364;25.582;2023-09-18T04:49:30;101528.06;;;4.92;100.00
59767;BME280;46248;58.364;25.582;2023-09-18T04:52:53;101533.13;;;5.03;100.00
59767;BME280;46248;58.364;25.582;2023-09-18T04:56:16;101528.72;;;5.08;100.00
59767;BME280;46248;58.364;25.582;2023-09-18T04:59:39;101531.22;;;5.17;100.00
59767;BME280;46248;58.364;25.582;2023-09-18T05:03:02;101529.25;;;5.35;100.00
59767;BME280;46248;58.364;25.582;2023-09-18T05:06:24;101517.84;;;5.48;100.00
59767;BME280;46248;58.364;25.582;2023-09-18T05:09:46;101527.97;;;5.65;100.00
59767;BME280;46248;58.364;25.582;2023-09-18T05:13:08;101514.78;;;5.77;100.00
59767;BME280;46248;58.364;25.582;2023-09-18T05:16:30;101516.31;;;5.93;100.00
59767;BME280;46248;58.364;25.582;2023-09-18T05:19:56;101524.63;;;6.14;100.00
59767;BME280;46248;58.364;25.582;2023-09-18T05:23:18;101533.88;;;6.32;100.00
59767;BME280;46248;58.364;25.582;2023-09-18T05:26:40;101531.00;;;6.47;100.00
59767;BME280;46248;58.364;25.582;2023-09-18T05:30:02;101532.41;;;6.65;100.00
59767;BME280;46248;58.364;25.582;2023-09-18T05:33:25;101525.97;;;6.84;100.00
59767;BME280;46248;58.364;25.582;2023-09-18T05:36:48;101509.13;;;7.01;100.00
59767;BME280;46248;58.364;25.582;2023-09-18T05:40:11;101519.09;;;7.24;100.00
59767;BME280;46248;58.364;25.582;2023-09-18T05:43:34;101528.25;;;7.42;100.00
59767;BME280;46248;58.364;25.582;2023-09-18T05:46:56;101527.94;;;7.55;100.00
59767;BME280;46248;58.364;25.582;2023-09-18T05:50:17;101529.31;;;7.72;100.00
59767;BME280;46248;58.364;25.582;2023-09-18T05:53:41;101517.66;;;7.87;100.00
59767;BME280;46248;58.364;25.582;2023-09-18T05:57:03;101525.03;;;8.05;100.00
59767;BME280;46248;58.364;25.582;2023-09-18T06:00:26;101513.41;;;8.18;100.00
59767;BME280;46248;58.364;25.582;2023-09-18T06:03:48;101520.81;;;8.35;100.00
59767;BME280;46248;58.364;25.582;2023-09-18T06:07:10;101521.28;;;8.51;100.00
59767;BME280;46248;58.364;25.582;2023-09-18T06:10:34;101519.19;;;8.64;100.00
59767;BME280;46248;58.364;25.582;2023-09-18T06:13:56;101517.84;;;8.80;100.00
59767;BME280;46248;58.364;25.582;2023-09-18T06:17:18;101509.75;;;8.89;100.00
59767;BME280;46248;58.364;25.582;2023-09-18T06:20:40;101513.59;;;9.07;100.00
59767;BME280;46248;58.364;25.582;2023-09-18T06:24:02;101521.81;;;9.25;100.00
59767;BME280;46248;58.364;25.582;2023-09-18T06:27:25;101526.59;;;9.40;100.00
59767;BME280;46248;58.364;25.582;2023-09-18T06:30:47;101520.09;;;9.53;100.00
59767;BME280;46248;58.364;25.582;2023-09-18T06:34:09;101528.06;;;9.77;100.00
59767;BME280;46248;58.364;25.582;2023-09-18T06:37:30;101516.16;;;9.95;100.00
59767;BME280;46248;58.364;25.582;2023-09-18T06:40:52;101518.22;;;10.12;100.00
59767;BME280;46248;58.364;25.582;2023-09-18T06:44:17;101514.94;;;10.31;100.00
59767;BME280;46248;58.364;25.582;2023-09-18T06:47:38;101511.97;;;10.42;100.00
59767;BME280;46248;58.364;25.582;2023-09-18T06:51:02;101514.97;;;10.57;100.00
59767;BME280;46248;58.364;25.582;2023-09-18T06:54:24;101509.84;;;10.77;100.00
59767;BME280;46248;58.364;25.582;2023-09-18T06:57:45;101500.56;;;10.92;100.00
59767;BME280;46248;58.364;25.582;2023-09-18T07:01:09;101493.19;;;11.03;100.00
59767;BME280;46248;58.364;25.582;2023-09-18T07:04:30;101504.63;;;11.24;100.00
59767;BME280;46248;58.364;25.582;2023-09-18T07:07:53;101494.81;;;11.29;100.00
59767;BME280;46248;58.364;25.582;2023-09-18T07:11:16;101501.97;;;11.48;100.00
59767;BME280;46248;58.364;25.582;2023-09-18T07:14:38;101505.06;;;11.57;100.00
59767;BME280;46248;58.364;25.582;2023-09-18T07:18:01;101509.97;;;11.66;100.00
59767;BME280;46248;58.364;25.582;2023-09-18T07:21:24;101496.72;;;11.69;100.00
59767;BME280;46248;58.364;25.582;2023-09-18T07:24:45;101497.69;;;11.89;100.00
59767;BME280;46248;58.364;25.582;2023-09-18T07:28:07;101499.03;;;11.99;100.00
59767;BME280;46248;58.364;25.582;2023-09-18T07:31:29;101496.84;;;12.10;100.00
59767;BME280;46248;58.364;25.582;2023-09-18T07:34:52;101496.31;;;12.23;100.00
59767;BME280;46248;58.364;25.582;2023-09-18T07:38:14;101490.72;;;12.30;100.00
59767;BME280;46248;58.364;25.582;2023-09-18T07:41:36;101488.75;;;12.35;100.00
59767;BME280;46248;58.364;25.582;2023-09-18T07:44:58;101496.81;;;12.51;100.00
59767;BME280;46248;58.364;25.582;2023-09-18T07:48:22;101494.75;;;12.58;100.00
59767;BME280;46248;58.364;25.582;2023-09-18T07:51:45;101492.94;;;12.60;100.00
59767;BME280;46248;58.364;25.582;2023-09-18T07:55:08;101490.75;;;12.70;100.00
59767;BME280;46248;58.364;25.582;2023-09-18T07:58:30;101484.09;;;12.81;100.00
59767;BME280;46248;58.364;25.582;2023-09-18T08:01:54;101490.63;;;12.92;100.00
59767;BME280;46248;58.364;25.582;2023-09-18T08:05:16;101488.66;;;12.97;100.00
59767;BME280;46248;58.364;25.582;2023-09-18T08:08:39;101491.00;;;13.03;100.00
59767;BME280;46248;58.364;25.582;2023-09-18T08:12:02;101497.03;;;13.05;100.00
59767;BME280;46248;58.364;25.582;2023-09-18T08:15:24;101494.34;;;13.06;100.00
59767;BME280;46248;58.364;25.582;2023-09-18T08:18:46;101497.81;;;13.07;100.00
59767;BME280;46248;58.364;25.582;2023-09-18T08:22:08;101500.19;;;13.13;100.00
59767;BME280;46248;58.364;25.582;2023-09-18T08:25:33;101495.22;;;13.26;100.00
59767;BME280;46248;58.364;25.582;2023-09-18T08:28:55;101491.38;;;13.33;100.00
59767;BME280;46248;58.364;25.582;2023-09-18T08:32:16;101484.38;;;13.51;100.00
59767;BME280;46248;58.364;25.582;2023-09-18T08:35:42;101486.66;;;13.59;100.00
59767;BME280;46248;58.364;25.582;2023-09-18T08:39:04;101492.38;;;13.67;100.00
59767;BME280;46248;58.364;25.582;2023-09-18T08:42:30;101488.06;;;13.66;100.00
59767;BME280;46248;58.364;25.582;2023-09-18T08:45:55;101478.31;;;13.68;100.00
59767;BME280;46248;58.364;25.582;2023-09-18T08:49:23;101468.50;;;13.71;100.00
59767;BME280;46248;58.364;25.582;2023-09-18T08:52:47;101470.53;;;13.84;100.00
59767;BME280;46248;58.364;25.582;2023-09-18T08:56:09;101466.03;;;13.86;100.00
59767;BME280;46248;58.364;25.582;2023-09-18T08:59:35;101465.72;;;13.92;100.00
59767;BME280;46248;58.364;25.582;2023-09-18T09:02:57;101459.53;;;13.93;100.00
59767;BME280;46248;58.364;25.582;2023-09-18T09:06:19;101459.75;;;14.06;100.00
59767;BME280;46248;58.364;25.582;2023-09-18T09:09:41;101462.16;;;14.10;100.00
59767;BME280;46248;58.364;25.582;2023-09-18T09:13:03;101449.44;;;14.18;100.00
59767;BME280;46248;58.364;25.582;2023-09-18T09:16:28;101461.53;;;14.23;100.00
59767;BME280;46248;58.364;25.582;2023-09-18T09:19:49;101450.84;;;14.26;100.00
59767;BME280;46248;58.364;25.582;2023-09-18T09:23:11;101453.59;;;14.40;100.00
59767;BME280;46248;58.364;25.582;2023-09-18T09:26:33;101457.34;;;14.53;100.00
59767;BME280;46248;58.364;25.582;2023-09-18T09:29:59;101450.28;;;14.54;100.00
59767;BME280;46248;58.364;25.582;2023-09-18T09:33:24;101409.13;;;14.34;100.00
59767;BME280;46248;58.364;25.582;2023-09-18T09:36:52;101445.47;;;14.62;100.00
59767;BME280;46248;58.364;25.582;2023-09-18T09:40:15;101435.59;;;14.65;100.00
59767;BME280;46248;58.364;25.582;2023-09-18T09:43:37;101429.47;;;14.65;100.00
59767;BME280;46248;58.364;25.582;2023-09-18T09:46:59;101427.19;;;14.75;99.91
59767;BME280;46248;58.364;25.582;2023-09-18T09:50:23;101414.84;;;14.75;100.00
59767;BME280;46248;58.364;25.582;2023-09-18T09:53:47;101420.47;;;14.85;100.00
59767;BME280;46248;58.364;25.582;2023-09-18T09:57:11;101416.47;;;14.94;100.00
59767;BME280;46248;58.364;25.582;2023-09-18T10:00:36;101420.66;;;14.98;96.33
59767;BME280;46248;58.364;25.582;2023-09-18T10:04:05;101391.41;;;14.86;100.00
59767;BME280;46248;58.364;25.582;2023-09-18T10:07:31;101411.03;;;14.97;98.95
59767;BME280;46248;58.364;25.582;2023-09-18T10:10:54;101418.78;;;15.00;100.00
59767;BME280;46248;58.364;25.582;2023-09-18T10:14:18;101412.59;;;15.01;100.00
59767;BME280;46248;58.364;25.582;2023-09-18T10:17:43;101406.97;;;15.07;96.64
59767;BME280;46248;58.364;25.582;2023-09-18T10:21:14;101392.41;;;15.00;93.44
59767;BME280;46248;58.364;25.582;2023-09-18T10:24:46;101389.09;;;14.96;94.20
59767;BME280;46248;58.364;25.582;2023-09-18T10:28:10;101397.50;;;15.03;96.79
59767;BME280;46248;58.364;25.582;2023-09-18T10:31:33;101385.16;;;15.03;98.12
59767;BME280;46248;58.364;25.582;2023-09-18T10:34:56;101401.34;;;15.13;96.47
59767;BME280;46248;58.364;25.582;2023-09-18T10:38:21;101395.03;;;15.16;98.01
59767;BME280;46248;58.364;25.582;2023-09-18T10:41:46;101361.59;;;15.16;96.17
59767;BME280;46248;58.364;25.582;2023-09-18T10:45:10;101379.44;;;15.27;95.69
59767;BME280;46248;58.364;25.582;2023-09-18T10:48:33;101385.38;;;15.30;95.79
59767;BME280;46248;58.364;25.582;2023-09-18T10:51:55;101386.34;;;15.29;93.90
59767;BME280;46248;58.364;25.582;2023-09-18T10:55:21;101380.47;;;15.24;92.45
59767;BME280;46248;58.364;25.582;2023-09-18T10:58:46;101376.56;;;15.16;90.87
59767;BME280;46248;58.364;25.582;2023-09-18T11:02:07;101370.97;;;15.06;91.64
59767;BME280;46248;58.364;25.582;2023-09-18T11:05:29;101360.50;;;15.04;92.09
59767;BME280;46248;58.364;25.582;2023-09-18T11:08:55;101363.03;;;15.06;91.24
59767;BME280;46248;58.364;25.582;2023-09-18T11:12:42;101352.59;;;15.04;90.08
59767;BME280;46248;58.364;25.582;2023-09-18T11:16:35;101355.22;;;15.04;90.87
59767;BME280;46248;58.364;25.582;2023-09-18T11:20:08;101354.56;;;15.01;91.86
59767;BME280;46248;58.364;25.582;2023-09-18T11:23:35;101357.78;;;15.06;87.76
59767;BME280;46248;58.364;25.582;2023-09-18T11:26:58;101346.38;;;15.05;87.89
59767;BME280;46248;58.364;25.582;2023-09-18T11:30:20;101348.84;;;15.08;88.67
59767;BME280;46248;58.364;25.582;2023-09-18T11:33:43;101351.66;;;15.05;88.75
59767;BME280;46248;58.364;25.582;2023-09-18T11:37:19;101340.91;;;15.08;85.64
59767;BME280;46248;58.364;25.582;2023-09-18T11:40:40;101311.75;;;14.96;85.72
59767;BME280;46248;58.364;25.582;2023-09-18T11:44:33;101331.22;;;15.09;84.48
59767;BME280;46248;58.364;25.582;2023-09-18T11:47:57;101324.91;;;15.11;88.39
59767;BME280;46248;58.364;25.582;2023-09-18T11:51:24;101311.91;;;15.08;88.74
59767;BME280;46248;58.364;25.582;2023-09-18T11:54:46;101307.41;;;15.10;87.16
59767;BME280;46248;58.364;25.582;2023-09-18T11:58:08;101299.56;;;15.09;88.14
59767;BME280;46248;58.364;25.582;2023-09-18T12:01:30;101294.97;;;15.12;87.90
59767;BME280;46248;58.364;25.582;2023-09-18T12:04:56;101292.06;;;15.17;88.93
59767;BME280;46248;58.364;25.582;2023-09-18T12:08:20;101295.53;;;15.18;88.45
59767;BME280;46248;58.364;25.582;2023-09-18T12:11:42;101287.75;;;15.16;87.56
59767;BME280;46248;58.364;25.582;2023-09-18T12:15:05;101291.03;;;15.20;85.98
59767;BME280;46248;58.364;25.582;2023-09-18T12:18:27;101264.72;;;15.04;86.85
59767;BME280;46248;58.364;25.582;2023-09-18T12:21:50;101274.44;;;15.18;88.22
59767;BME280;46248;58.364;25.582;2023-09-18T12:25:14;101266.53;;;15.18;88.44
59767;BME280;46248;58.364;25.582;2023-09-18T12:28:39;101259.38;;;15.20;88.86
59767;BME280;46248;58.364;25.582;2023-09-18T12:32:00;101267.00;;;15.24;89.71
59767;BME280;46248;58.364;25.582;2023-09-18T12:35:26;101250.44;;;15.22;88.48
59767;BME280;46248;58.364;25.582;2023-09-18T12:38:57;101259.50;;;15.32;88.08
59767;BME280;46248;58.364;25.582;2023-09-18T12:42:24;101264.00;;;15.30;87.84
59767;BME280;46248;58.364;25.582;2023-09-18T12:45:47;101264.13;;;15.29;88.21
59767;BME280;46248;58.364;25.582;2023-09-18T12:49:17;101264.13;;;15.29;85.30
59767;BME280;46248;58.364;25.582;2023-09-18T12:52:39;101240.06;;;15.19;86.28
59767;BME280;46248;58.364;25.582;2023-09-18T12:56:08;101252.78;;;15.27;86.54
59767;BME280;46248;58.364;25.582;2023-09-18T12:59:32;101253.75;;;15.26;87.88
59767;BME280;46248;58.364;25.582;2023-09-18T13:02:56;101241.09;;;15.17;88.09
59767;BME280;46248;58.364;25.582;2023-09-18T13:06:19;101241.59;;;15.23;88.19
59767;BME280;46248;58.364;25.582;2023-09-18T13:09:41;101238.28;;;15.20;88.65
59767;BME280;46248;58.364;25.582;2023-09-18T13:13:03;101232.63;;;15.26;89.96
59767;BME280;46248;58.364;25.582;2023-09-18T13:16:27;101235.69;;;15.34;88.60
59767;BME280;46248;58.364;25.582;2023-09-18T13:19:49;101209.56;;;15.29;89.14
59767;BME280;46248;58.364;25.582;2023-09-18T13:23:11;101222.97;;;15.41;89.73
59767;BME280;46248;58.364;25.582;2023-09-18T13:26:33;101220.22;;;15.42;90.45
59767;BME280;46248;58.364;25.582;2023-09-18T13:29:55;101212.22;;;15.44;90.24
59767;BME280;46248;58.364;25.582;2023-09-18T13:33:18;101199.88;;;15.44;90.02
59767;BME280;46248;58.364;25.582;2023-09-18T13:36:40;101189.00;;;15.49;88.74
59767;BME280;46248;58.364;25.582;2023-09-18T13:40:02;101194.09;;;15.52;90.59
59767;BME280;46248;58.364;25.582;2023-09-18T13:43:26;101176.59;;;15.51;87.10
59767;BME280;46248;58.364;25.582;2023-09-18T13:46:53;101177.81;;;15.45;88.77
59767;BME280;46248;58.364;25.582;2023-09-18T13:50:16;101178.56;;;15.47;87.24
59767;BME280;46248;58.364;25.582;2023-09-18T13:53:39;101169.88;;;15.45;88.71
59767;BME280;46248;58.364;25.582;2023-09-18T13:57:01;101165.63;;;15.43;89.50
59767;BME280;46248;58.364;25.582;2023-09-18T14:00:25;101155.47;;;15.37;88.62
59767;BME280;46248;58.364;25.582;2023-09-18T14:03:47;101157.66;;;15.44;87.99
59767;BME280;46248;58.364;25.582;2023-09-18T14:07:11;101163.00;;;15.43;86.97
59767;BME280;46248;58.364;25.582;2023-09-18T14:10:33;101151.06;;;15.37;87.91
59767;BME280;46248;58.364;25.582;2023-09-18T14:13:54;101150.09;;;15.38;87.69
59767;BME280;46248;58.364;25.582;2023-09-18T14:17:16;101147.53;;;15.37;88.28
59767;BME280;46248;58.364;25.582;2023-09-18T14:20:42;101145.09;;;15.33;87.35
59767;BME280;46248;58.364;25.582;2023-09-18T14:24:06;101141.72;;;15.31;87.11
59767;BME280;46248;58.364;25.582;2023-09-18T14:27:27;101142.47;;;15.33;89.36
59767;BME280;46248;58.364;25.582;2023-09-18T14:30:49;101138.97;;;15.33;89.47
59767;BME280;46248;58.364;25.582;2023-09-18T14:34:12;101133.81;;;15.31;89.53
59767;BME280;46248;58.364;25.582;2023-09-18T14:37:34;101141.63;;;15.33;88.76
59767;BME280;46248;58.364;25.582;2023-09-18T14:40:57;101125.13;;;15.29;89.31
59767;BME280;46248;58.364;25.582;2023-09-18T14:44:23;101125.31;;;15.26;90.24
59767;BME280;46248;58.364;25.582;2023-09-18T14:47:45;101123.72;;;15.24;89.56
59767;BME280;46248;58.364;25.582;2023-09-18T14:51:08;101128.31;;;15.20;91.16
59767;BME280;46248;58.364;25.582;2023-09-18T14:54:30;101116.28;;;15.16;91.68
59767;BME280;46248;58.364;25.582;2023-09-18T14:57:52;101106.94;;;15.10;91.73
59767;BME280;46248;58.364;25.582;2023-09-18T15:01:15;101106.47;;;15.04;91.97
59767;BME280;46248;58.364;25.582;2023-09-18T15:04:36;101109.09;;;15.04;92.06
59767;BME280;46248;58.364;25.582;2023-09-18T15:07:58;101105.53;;;15.05;92.90
59767;BME280;46248;58.364;25.582;2023-09-18T15:11:20;101103.84;;;15.04;93.47
59767;BME280;46248;58.364;25.582;2023-09-18T15:14:43;101103.06;;;15.02;93.37
59767;BME280;46248;58.364;25.582;2023-09-18T15:18:05;101101.56;;;14.98;93.71
59767;BME280;46248;58.364;25.582;2023-09-18T15:26:01;101092.91;;;14.96;94.50
59767;BME280;46248;58.364;25.582;2023-09-18T15:29:23;101083.38;;;14.93;94.48
59767;BME280;46248;58.364;25.582;2023-09-18T15:32:52;101083.38;;;14.93;95.13
59767;BME280;46248;58.364;25.582;2023-09-18T15:36:14;101064.72;;;14.82;95.57
59767;BME280;46248;58.364;25.582;2023-09-18T15:39:36;101073.66;;;14.79;96.00
59767;BME280;46248;58.364;25.582;2023-09-18T15:42:58;101046.81;;;14.58;96.87
59767;BME280;46248;58.364;25.582;2023-09-18T15:46:20;101066.75;;;14.62;97.78
59767;BME280;46248;58.364;25.582;2023-09-18T15:49:43;101079.16;;;14.60;98.70
59767;BME280;46248;58.364;25.582;2023-09-18T15:53:05;101078.69;;;14.54;99.60
59767;BME280;46248;58.364;25.582;2023-09-18T15:56:27;101074.78;;;14.45;100.00
59767;BME280;46248;58.364;25.582;2023-09-18T15:59:49;101075.31;;;14.36;100.00
59767;BME280;46248;58.364;25.582;2023-09-18T16:03:10;101078.47;;;14.27;100.00
59767;BME280;46248;58.364;25.582;2023-09-18T16:06:34;101071.88;;;14.19;100.00
59767;BME280;46248;58.364;25.582;2023-09-18T16:09:56;101071.28;;;14.14;100.00
59767;BME280;46248;58.364;25.582;2023-09-18T16:13:19;101071.03;;;14.03;100.00
59767;BME280;46248;58.364;25.582;2023-09-18T16:16:41;101070.81;;;13.92;100.00
59767;BME280;46248;58.364;25.582;2023-09-18T16:20:05;101071.31;;;13.83;100.00
59767;BME280;46248;58.364;25.582;2023-09-18T16:23:29;101062.16;;;13.74;100.00
59767;BME280;46248;58.364;25.582;2023-09-18T16:26:52;101060.28;;;13.60;100.00
59767;BME280;46248;58.364;25.582;2023-09-18T16:30:17;101053.75;;;13.51;100.00
59767;BME280;46248;58.364;25.582;2023-09-18T16:33:39;101048.06;;;13.43;100.00
59767;BME280;46248;58.364;25.582;2023-09-18T16:37:03;101045.25;;;13.31;100.00
59767;BME280;46248;58.364;25.582;2023-09-18T16:40:26;101037.06;;;13.19;100.00
59767;BME280;46248;58.364;25.582;2023-09-18T16:43:53;101038.66;;;13.06;100.00
59767;BME280;46248;58.364;25.582;2023-09-18T16:47:16;101030.41;;;12.96;100.00
59767;BME280;46248;58.364;25.582;2023-09-18T16:50:39;101023.69;;;12.91;100.00
59767;BME280;46248;58.364;25.582;2023-09-18T16:54:01;101023.34;;;12.81;100.00
59767;BME280;46248;58.364;25.582;2023-09-18T16:57:24;101020.25;;;12.73;100.00
59767;BME280;46248;58.364;25.582;2023-09-18T17:00:46;101021.66;;;12.63;100.00
59767;BME280;46248;58.364;25.582;2023-09-18T17:04:08;101016.78;;;12.55;100.00
59767;BME280;46248;58.364;25.582;2023-09-18T17:07:32;101018.81;;;12.50;100.00
59767;BME280;46248;58.364;25.582;2023-09-18T17:10:54;101018.72;;;12.34;100.00
59767;BME280;46248;58.364;25.582;2023-09-18T17:14:18;101024.06;;;12.32;100.00
59767;BME280;46248;58.364;25.582;2023-09-18T17:17:40;101008.25;;;12.17;100.00
59767;BME280;46248;58.364;25.582;2023-09-18T17:21:02;101004.75;;;12.16;100.00
59767;BME280;46248;58.364;25.582;2023-09-18T17:24:24;101006.94;;;12.08;100.00
59767;BME280;46248;58.364;25.582;2023-09-18T17:27:46;101020.22;;;12.05;100.00
59767;BME280;46248;58.364;25.582;2023-09-18T17:31:09;101027.53;;;11.98;100.00